sensor_id;sensor_type;location;lat;lon;timestamp;temperature;humidity
4374;DHT22;2201;51.100;6.814;2023-02-26T06:45:48;-0.70;98.20
4374;DHT22;2201;51.100;6.814;2023-02-26T06:48:15;-0.70;98.20
4374;DHT22;2201;51.100;6.814;2023-02-26T06:50:42;-0.70;98.20
4374;DHT22;2201;51.100;6.814;2023-02-26T06:53:09;-0.70;98.20
4374;DHT22;2201;51.100;6.814;2023-02-26T06:55:42;-0.70;98.20
4374;DHT22;2201;51.100;6.814;2023-02-26T06:58:10;-0.70;98.20
4374;DHT22;2201;51.100;6.814;2023-02-26T07:00:37;-0.60;98.20
4374;DHT22;2201;51.100;6.814;2023-02-26T07:06:31;-0.50;98.20
4374;DHT22;2201;51.100;6.814;2023-02-26T07:08:59;-0.40;98.20
4374;DHT22;2201;51.100;6.814;2023-02-26T07:11:26;-0.30;98.20
4374;DHT22;2201;51.100;6.814;2023-02-26T07:13:52;-0.20;98.20
4374;DHT22;2201;51.100;6.814;2023-02-26T07:16:19;-0.10;98.20
4374;DHT22;2201;51.100;6.814;2023-02-26T07:18:47;0.00;98.20
4374;DHT22;2201;51.100;6.814;2023-02-26T07:21:14;0.10;98.20
4374;DHT22;2201;51.100;6.814;2023-02-26T07:23:41;0.20;98.20
4374;DHT22;2201;51.100;6.814;2023-02-26T07:26:08;0.30;98.20
4374;DHT22;2201;51.100;6.814;2023-02-26T07:28:35;0.40;98.20
4374;DHT22;2201;51.100;6.814;2023-02-26T07:31:02;0.50;98.20
4374;DHT22;2201;51.100;6.814;2023-02-26T07:33:29;0.70;98.20
4374;DHT22;2201;51.100;6.814;2023-02-26T07:35:58;0.80;98.20
4374;DHT22;2201;51.100;6.814;2023-02-26T07:38:25;0.90;98.20
4374;DHT22;2201;51.100;6.814;2023-02-26T07:40:53;1.00;98.20
4374;DHT22;2201;51.100;6.814;2023-02-26T07:43:20;1.10;98.20
4374;DHT22;2201;51.100;6.814;2023-02-26T07:45:48;1.20;98.20
4374;DHT22;2201;51.100;6.814;2023-02-26T07:48:15;1.20;98.20
4374;DHT22;2201;51.100;6.814;2023-02-26T07:50:42;1.30;98.20
4374;DHT22;2201;51.100;6.814;2023-02-26T07:53:11;1.40;98.20
4374;DHT22;2201;51.100;6.814;2023-02-26T07:55:38;1.50;98.20
4374;DHT22;2201;51.100;6.814;2023-02-26T07:58:05;1.50;98.20
4374;DHT22;2201;51.100;6.814;2023-02-26T08:00:31;1.40;98.20
4374;DHT22;2201;51.100;6.814;2023-02-26T08:02:58;1.50;98.20
4374;DHT22;2201;51.100;6.814;2023-02-26T08:05:25;1.60;98.20
4374;DHT22;2201;51.100;6.814;2023-02-26T08:07:52;1.70;98.20
4374;DHT22;2201;51.100;6.814;2023-02-26T08:10:20;1.80;98.20
4374;DHT22;2201;51.100;6.814;2023-02-26T08:12:47;1.80;98.20
4374;DHT22;2201;51.100;6.814;2023-02-26T08:15:13;1.90;98.20
4374;DHT22;2201;51.100;6.814;2023-02-26T08:17:40;2.00;98.20
4374;DHT22;2201;51.100;6.814;2023-02-26T08:20:08;2.10;98.20
4374;DHT22;2201;51.100;6.814;2023-02-26T08:22:36;2.20;98.20
4374;DHT22;2201;51.100;6.814;2023-02-26T08:25:03;2.30;98.20
4374;DHT22;2201;51.100;6.814;2023-02-26T08:27:32;2.40;98.20
4374;DHT22;2201;51.100;6.814;2023-02-26T08:29:59;2.60;98.20
4374;DHT22;2201;51.100;6.814;2023-02-26T08:32:26;2.80;98.20
4374;DHT22;2201;51.100;6.814;2023-02-26T08:34:52;2.90;98.20
4374;DHT22;2201;51.100;6.814;2023-02-26T08:37:20;3.00;98.20
4374;DHT22;2201;51.100;6.814;2023-02-26T08:39:48;3.20;98.20
4374;DHT22;2201;51.100;6.814;2023-02-26T08:42:15;3.40;98.20
4374;DHT22;2201;51.100;6.814;2023-02-26T08:44:46;3.60;98.20
4374;DHT22;2201;51.100;6.814;2023-02-26T08:47:13;3.80;98.20
4374;DHT22;2201;51.100;6.814;2023-02-26T08:49:40;3.80;98.00
4374;DHT22;2201;51.100;6.814;2023-02-26T08:52:07;3.90;98.20
4374;DHT22;2201;51.100;6.814;2023-02-26T08:54:33;3.90;98.00
4374;DHT22;2201;51.100;6.814;2023-02-26T08:57:00;3.90;97.80
4374;DHT22;2201;51.100;6.814;2023-02-26T08:59:28;4.00;97.30
4374;DHT22;2201;51.100;6.814;2023-02-26T09:01:56;4.00;97.50
4374;DHT22;2201;51.100;6.814;2023-02-26T09:04:22;4.10;97.20
4374;DHT22;2201;51.100;6.814;2023-02-26T09:06:51;4.20;96.90
4374;DHT22;2201;51.100;6.814;2023-02-26T09:09:18;4.30;96.70
4374;DHT22;2201;51.100;6.814;2023-02-26T09:11:45;4.40;96.20
4374;DHT22;2201;51.100;6.814;2023-02-26T09:14:12;4.40;95.40
4374;DHT22;2201;51.100;6.814;2023-02-26T09:16:38;4.40;95.40
4374;DHT22;2201;51.100;6.814;2023-02-26T09:19:07;4.40;95.10
4374;DHT22;2201;51.100;6.814;2023-02-26T09:21:34;4.50;94.80
4374;DHT22;2201;51.100;6.814;2023-02-26T09:24:01;4.40;94.00
4374;DHT22;2201;51.100;6.814;2023-02-26T09:26:28;4.40;95.00
4374;DHT22;2201;51.100;6.814;2023-02-26T09:28:54;4.40;94.30
4374;DHT22;2201;51.100;6.814;2023-02-26T09:31:21;4.50;94.50
4374;DHT22;2201;51.100;6.814;2023-02-26T09:33:48;4.40;93.10
4374;DHT22;2201;51.100;6.814;2023-02-26T09:36:18;4.30;94.40
4374;DHT22;2201;51.100;6.814;2023-02-26T09:38:45;4.40;93.80
4374;DHT22;2201;51.100;6.814;2023-02-26T09:41:16;4.50;92.80
4374;DHT22;2201;51.100;6.814;2023-02-26T09:44:03;4.60;93.70
4374;DHT22;2201;51.100;6.814;2023-02-26T09:46:41;4.80;92.70
4374;DHT22;2201;51.100;6.814;2023-02-26T09:49:18;4.90;91.70
4374;DHT22;2201;51.100;6.814;2023-02-26T09:51:52;5.00;91.00
4374;DHT22;2201;51.100;6.814;2023-02-26T09:54:23;5.10;91.00
4374;DHT22;2201;51.100;6.814;2023-02-26T09:56:52;5.20;90.10
4374;DHT22;2201;51.100;6.814;2023-02-26T09:59:19;5.50;89.90
4374;DHT22;2201;51.100;6.814;2023-02-26T10:01:52;5.60;88.50
4374;DHT22;2201;51.100;6.814;2023-02-26T10:04:25;5.60;87.80
4374;DHT22;2201;51.100;6.814;2023-02-26T10:07:15;5.80;87.90
4374;DHT22;2201;51.100;6.814;2023-02-26T10:09:56;5.80;86.70
4374;DHT22;2201;51.100;6.814;2023-02-26T10:12:25;5.80;86.40
4374;DHT22;2201;51.100;6.814;2023-02-26T10:14:57;6.00;86.90
4374;DHT22;2201;51.100;6.814;2023-02-26T10:17:31;6.10;85.70
4374;DHT22;2201;51.100;6.814;2023-02-26T10:20:03;6.00;84.10
4374;DHT22;2201;51.100;6.814;2023-02-26T10:22:36;5.90;84.00
4374;DHT22;2201;51.100;6.814;2023-02-26T10:25:10;5.80;83.90
4374;DHT22;2201;51.100;6.814;2023-02-26T10:27:46;5.60;84.80
4374;DHT22;2201;51.100;6.814;2023-02-26T10:30:21;5.30;85.10
4374;DHT22;2201;51.100;6.814;2023-02-26T10:32:54;5.20;84.50
4374;DHT22;2201;51.100;6.814;2023-02-26T10:35:25;5.00;85.50
4374;DHT22;2201;51.100;6.814;2023-02-26T10:37:56;4.80;86.30
4374;DHT22;2201;51.100;6.814;2023-02-26T10:40:29;4.60;85.70
4374;DHT22;2201;51.100;6.814;2023-02-26T10:42:59;4.50;86.30
4374;DHT22;2201;51.100;6.814;2023-02-26T10:45:43;4.60;86.80
4374;DHT22;2201;51.100;6.814;2023-02-26T10:48:36;4.50;86.00
4374;DHT22;2201;51.100;6.814;2023-02-26T10:51:11;4.80;85.80
4374;DHT22;2201;51.100;6.814;2023-02-26T10:53:42;4.90;84.80
4374;DHT22;2201;51.100;6.814;2023-02-26T10:56:12;4.90;85.50
4374;DHT22;2201;51.100;6.814;2023-02-26T10:58:41;5.10;85.90
4374;DHT22;2201;51.100;6.814;2023-02-26T11:01:13;5.60;85.40
4374;DHT22;2201;51.100;6.814;2023-02-26T11:03:44;6.10;84.00
4374;DHT22;2201;51.100;6.814;2023-02-26T11:06:17;6.40;82.90
4374;DHT22;2201;51.100;6.814;2023-02-26T11:08:48;6.80;83.60
4374;DHT22;2201;51.100;6.814;2023-02-26T11:11:35;7.20;80.70
4374;DHT22;2201;51.100;6.814;2023-02-26T11:14:02;7.30;77.40
4374;DHT22;2201;51.100;6.814;2023-02-26T11:16:29;7.50;77.70
4374;DHT22;2201;51.100;6.814;2023-02-26T11:18:58;7.30;76.40
4374;DHT22;2201;51.100;6.814;2023-02-26T11:21:28;7.20;77.60
4374;DHT22;2201;51.100;6.814;2023-02-26T11:24:18;7.10;78.30
4374;DHT22;2201;51.100;6.814;2023-02-26T11:26:56;6.90;77.40
4374;DHT22;2201;51.100;6.814;2023-02-26T11:29:27;6.70;78.70
4374;DHT22;2201;51.100;6.814;2023-02-26T11:31:58;6.40;79.40
4374;DHT22;2201;51.100;6.814;2023-02-26T11:34:29;6.20;80.60
4374;DHT22;2201;51.100;6.814;2023-02-26T11:37:03;6.00;80.80
4374;DHT22;2201;51.100;6.814;2023-02-26T11:39:46;5.80;80.50
4374;DHT22;2201;51.100;6.814;2023-02-26T11:42:15;5.70;81.10
4374;DHT22;2201;51.100;6.814;2023-02-26T11:44:45;5.60;82.00
4374;DHT22;2201;51.100;6.814;2023-02-26T11:47:15;5.80;82.70
4374;DHT22;2201;51.100;6.814;2023-02-26T11:49:44;5.80;82.00
4374;DHT22;2201;51.100;6.814;2023-02-26T11:52:19;5.70;80.20
4374;DHT22;2201;51.100;6.814;2023-02-26T11:54:49;5.80;80.90
4374;DHT22;2201;51.100;6.814;2023-02-26T11:57:18;6.10;82.20
4374;DHT22;2201;51.100;6.814;2023-02-26T11:59:48;6.30;79.80
4374;DHT22;2201;51.100;6.814;2023-02-26T12:02:19;6.30;78.80
4374;DHT22;2201;51.100;6.814;2023-02-26T12:04:49;6.10;78.30
4374;DHT22;2201;51.100;6.814;2023-02-26T12:07:18;6.00;78.90
4374;DHT22;2201;51.100;6.814;2023-02-26T12:09:47;6.00;78.50
4374;DHT22;2201;51.100;6.814;2023-02-26T12:12:36;5.90;77.40
4374;DHT22;2201;51.100;6.814;2023-02-26T12:15:25;5.80;78.20
4374;DHT22;2201;51.100;6.814;2023-02-26T12:21:14;6.00;76.90
4374;DHT22;2201;51.100;6.814;2023-02-26T12:26:49;5.80;76.50
4374;DHT22;2201;51.100;6.814;2023-02-26T12:29:28;5.70;77.20
4374;DHT22;2201;51.100;6.814;2023-02-26T12:32:17;5.90;77.30
4374;DHT22;2201;51.100;6.814;2023-02-26T12:35:10;6.20;76.60
4374;DHT22;2201;51.100;6.814;2023-02-26T12:37:50;6.20;75.20
4374;DHT22;2201;51.100;6.814;2023-02-26T12:40:38;6.30;76.10
4374;DHT22;2201;51.100;6.814;2023-02-26T12:43:10;6.50;75.10
4374;DHT22;2201;51.100;6.814;2023-02-26T12:45:49;6.80;74.90
4374;DHT22;2201;51.100;6.814;2023-02-26T12:48:41;6.90;73.60
4374;DHT22;2201;51.100;6.814;2023-02-26T12:51:18;7.20;74.00
4374;DHT22;2201;51.100;6.814;2023-02-26T12:54:10;7.30;73.20
4374;DHT22;2201;51.100;6.814;2023-02-26T12:57:01;7.20;73.00
4374;DHT22;2201;51.100;6.814;2023-02-26T12:59:44;7.20;72.70
4374;DHT22;2201;51.100;6.814;2023-02-26T13:02:36;7.30;72.50
4374;DHT22;2201;51.100;6.814;2023-02-26T13:05:17;7.20;72.00
4374;DHT22;2201;51.100;6.814;2023-02-26T13:07:59;7.30;73.10
4374;DHT22;2201;51.100;6.814;2023-02-26T13:10:36;7.40;72.80
4374;DHT22;2201;51.100;6.814;2023-02-26T13:13:17;7.40;73.90
4374;DHT22;2201;51.100;6.814;2023-02-26T13:15:59;7.40;73.30
4374;DHT22;2201;51.100;6.814;2023-02-26T13:18:36;7.30;72.40
4374;DHT22;2201;51.100;6.814;2023-02-26T13:21:09;7.20;72.90
4374;DHT22;2201;51.100;6.814;2023-02-26T13:23:43;7.10;73.30
4374;DHT22;2201;51.100;6.814;2023-02-26T13:26:14;7.20;74.10
4374;DHT22;2201;51.100;6.814;2023-02-26T13:28:44;7.30;74.40
4374;DHT22;2201;51.100;6.814;2023-02-26T13:31:17;7.30;74.10
4374;DHT22;2201;51.100;6.814;2023-02-26T13:33:48;7.30;73.00
4374;DHT22;2201;51.100;6.814;2023-02-26T13:36:16;7.20;73.80
4374;DHT22;2201;51.100;6.814;2023-02-26T13:38:52;7.10;72.70
4374;DHT22;2201;51.100;6.814;2023-02-26T13:41:36;7.20;73.70
4374;DHT22;2201;51.100;6.814;2023-02-26T13:44:16;7.20;74.50
4374;DHT22;2201;51.100;6.814;2023-02-26T13:47:23;7.20;74.70
4374;DHT22;2201;51.100;6.814;2023-02-26T13:50:03;7.20;75.50
4374;DHT22;2201;51.100;6.814;2023-02-26T13:52:33;7.20;74.00
4374;DHT22;2201;51.100;6.814;2023-02-26T13:55:02;7.00;74.70
4374;DHT22;2201;51.100;6.814;2023-02-26T13:57:42;7.00;74.70
4374;DHT22;2201;51.100;6.814;2023-02-26T14:00:25;7.00;74.50
4374;DHT22;2201;51.100;6.814;2023-02-26T14:02:55;6.90;73.90
4374;DHT22;2201;51.100;6.814;2023-02-26T14:08:42;7.00;74.00
4374;DHT22;2201;51.100;6.814;2023-02-26T14:14:30;6.60;75.20
4374;DHT22;2201;51.100;6.814;2023-02-26T14:17:28;6.60;75.10
4374;DHT22;2201;51.100;6.814;2023-02-26T14:20:27;6.50;73.30
4374;DHT22;2201;51.100;6.814;2023-02-26T14:23:27;6.60;75.30
4374;DHT22;2201;51.100;6.814;2023-02-26T14:26:05;6.50;73.50
4374;DHT22;2201;51.100;6.814;2023-02-26T14:28:45;6.50;75.10
4374;DHT22;2201;51.100;6.814;2023-02-26T14:31:21;6.50;76.30
4374;DHT22;2201;51.100;6.814;2023-02-26T14:34:01;6.60;76.50
4374;DHT22;2201;51.100;6.814;2023-02-26T14:36:35;6.60;76.40
4374;DHT22;2201;51.100;6.814;2023-02-26T14:39:05;6.50;75.40
4374;DHT22;2201;51.100;6.814;2023-02-26T14:41:38;6.40;75.10
4374;DHT22;2201;51.100;6.814;2023-02-26T14:44:12;6.30;75.50
4374;DHT22;2201;51.100;6.814;2023-02-26T14:46:40;6.10;75.70
4374;DHT22;2201;51.100;6.814;2023-02-26T14:49:13;6.00;75.60
4374;DHT22;2201;51.100;6.814;2023-02-26T14:51:49;6.00;75.90
4374;DHT22;2201;51.100;6.814;2023-02-26T14:54:27;6.10;76.50
4374;DHT22;2201;51.100;6.814;2023-02-26T14:57:02;6.10;75.60
4374;DHT22;2201;51.100;6.814;2023-02-26T14:59:50;6.10;74.70
4374;DHT22;2201;51.100;6.814;2023-02-26T15:02:25;5.90;75.10
4374;DHT22;2201;51.100;6.814;2023-02-26T15:05:13;6.00;76.90
4374;DHT22;2201;51.100;6.814;2023-02-26T15:07:58;6.00;75.80
4374;DHT22;2201;51.100;6.814;2023-02-26T15:10:42;5.80;74.70
4374;DHT22;2201;51.100;6.814;2023-02-26T15:13:22;5.70;74.80
4374;DHT22;2201;51.100;6.814;2023-02-26T15:15:55;5.70;75.70
4374;DHT22;2201;51.100;6.814;2023-02-26T15:18:37;5.60;75.60
4374;DHT22;2201;51.100;6.814;2023-02-26T15:21:14;5.50;75.80
4374;DHT22;2201;51.100;6.814;2023-02-26T15:23:49;5.40;76.00
4374;DHT22;2201;51.100;6.814;2023-02-26T15:26:20;5.50;77.10
4374;DHT22;2201;51.100;6.814;2023-02-26T15:28:49;5.40;76.40
4374;DHT22;2201;51.100;6.814;2023-02-26T15:31:19;5.40;76.70
4374;DHT22;2201;51.100;6.814;2023-02-26T15:33:47;5.30;76.50
4374;DHT22;2201;51.100;6.814;2023-02-26T15:36:18;5.20;77.20
4374;DHT22;2201;51.100;6.814;2023-02-26T15:38:52;5.10;77.60
4374;DHT22;2201;51.100;6.814;2023-02-26T15:41:21;5.10;76.80
4374;DHT22;2201;51.100;6.814;2023-02-26T15:43:50;5.00;77.70
4374;DHT22;2201;51.100;6.814;2023-02-26T15:46:28;5.00;76.70
4374;DHT22;2201;51.100;6.814;2023-02-26T15:48:59;4.90;76.80
4374;DHT22;2201;51.100;6.814;2023-02-26T15:51:27;4.90;78.50
4374;DHT22;2201;51.100;6.814;2023-02-26T15:53:55;4.90;78.80
4374;DHT22;2201;51.100;6.814;2023-02-26T15:56:28;4.80;78.30
4374;DHT22;2201;51.100;6.814;2023-02-26T15:58:59;4.80;78.60
4374;DHT22;2201;51.100;6.814;2023-02-26T16:01:32;4.80;78.90
4374;DHT22;2201;51.100;6.814;2023-02-26T16:04:01;4.80;78.80
4374;DHT22;2201;51.100;6.814;2023-02-26T16:06:30;4.80;79.00
4374;DHT22;2201;51.100;6.814;2023-02-26T16:08:59;4.70;79.00
4374;DHT22;2201;51.100;6.814;2023-02-26T16:11:28;4.70;78.60
4374;DHT22;2201;51.100;6.814;2023-02-26T16:13:58;4.70;78.50
4374;DHT22;2201;51.100;6.814;2023-02-26T16:16:27;4.60;78.10
4374;DHT22;2201;51.100;6.814;2023-02-26T16:18:56;4.60;79.70
4374;DHT22;2201;51.100;6.814;2023-02-26T16:21:28;4.60;79.30
4374;DHT22;2201;51.100;6.814;2023-02-26T16:23:59;4.50;79.40
4374;DHT22;2201;51.100;6.814;2023-02-26T16:26:29;4.50;79.90
4374;DHT22;2201;51.100;6.814;2023-02-26T16:29:00;4.40;79.50
4374;DHT22;2201;51.100;6.814;2023-02-26T16:31:30;4.40;79.80
4374;DHT22;2201;51.100;6.814;2023-02-26T16:34:03;4.30;80.00
4374;DHT22;2201;51.100;6.814;2023-02-26T16:36:35;4.30;80.50
4374;DHT22;2201;51.100;6.814;2023-02-26T16:39:13;4.30;80.90
4374;DHT22;2201;51.100;6.814;2023-02-26T16:41:47;4.20;81.00
4374;DHT22;2201;51.100;6.814;2023-02-26T16:44:43;4.20;81.30
4374;DHT22;2201;51.100;6.814;2023-02-26T16:47:11;4.20;81.30
4374;DHT22;2201;51.100;6.814;2023-02-26T16:49:39;4.20;82.00
4374;DHT22;2201;51.100;6.814;2023-02-26T16:52:11;4.10;82.50
4374;DHT22;2201;51.100;6.814;2023-02-26T16:54:42;4.10;82.50
4374;DHT22;2201;51.100;6.814;2023-02-26T16:57:15;4.00;83.30
4374;DHT22;2201;51.100;6.814;2023-02-26T16:59:50;4.00;83.30
4374;DHT22;2201;51.100;6.814;2023-02-26T17:02:20;3.90;82.50
4374;DHT22;2201;51.100;6.814;2023-02-26T17:04:50;3.80;81.80
4374;DHT22;2201;51.100;6.814;2023-02-26T17:07:24;3.80;82.70
4374;DHT22;2201;51.100;6.814;2023-02-26T17:09:56;3.80;82.50
4374;DHT22;2201;51.100;6.814;2023-02-26T17:12:28;3.70;82.70
4374;DHT22;2201;51.100;6.814;2023-02-26T17:14:58;3.70;83.30
4374;DHT22;2201;51.100;6.814;2023-02-26T17:17:26;3.70;83.20
4374;DHT22;2201;51.100;6.814;2023-02-26T17:19:53;3.60;83.60
4374;DHT22;2201;51.100;6.814;2023-02-26T17:22:25;3.60;83.80
4374;DHT22;2201;51.100;6.814;2023-02-26T17:24:54;3.50;83.40
4374;DHT22;2201;51.100;6.814;2023-02-26T17:27:24;3.50;84.10
4374;DHT22;2201;51.100;6.814;2023-02-26T17:29:52;3.40;84.80
4374;DHT22;2201;51.100;6.814;2023-02-26T17:32:21;3.40;84.90
4374;DHT22;2201;51.100;6.814;2023-02-26T17:34:48;3.40;84.40
4374;DHT22;2201;51.100;6.814;2023-02-26T17:37:16;3.40;85.40
4374;DHT22;2201;51.100;6.814;2023-02-26T17:39:43;3.40;85.40
4374;DHT22;2201;51.100;6.814;2023-02-26T17:42:14;3.30;86.50
4374;DHT22;2201;51.100;6.814;2023-02-26T17:44:42;3.30;86.30
4374;DHT22;2201;51.100;6.814;2023-02-26T17:47:11;3.20;86.10
4374;DHT22;2201;51.100;6.814;2023-02-26T17:49:41;3.20;86.10
4374;DHT22;2201;51.100;6.814;2023-02-26T17:52:07;3.10;87.20
4374;DHT22;2201;51.100;6.814;2023-02-26T17:54:34;3.10;87.70
4374;DHT22;2201;51.100;6.814;2023-02-26T17:57:02;3.10;87.80
4374;DHT22;2201;51.100;6.814;2023-02-26T17:59:31;3.00;88.00
4374;DHT22;2201;51.100;6.814;2023-02-26T18:01:58;3.00;88.40
4374;DHT22;2201;51.100;6.814;2023-02-26T18:04:25;2.90;88.50
4374;DHT22;2201;51.100;6.814;2023-02-26T18:06:53;2.90;88.60
4374;DHT22;2201;51.100;6.814;2023-02-26T18:09:20;2.90;88.90
4374;DHT22;2201;51.100;6.814;2023-02-26T18:11:47;2.90;89.00
4374;DHT22;2201;51.100;6.814;2023-02-26T18:14:14;2.80;89.10
4374;DHT22;2201;51.100;6.814;2023-02-26T18:16:43;2.80;89.50
4374;DHT22;2201;51.100;6.814;2023-02-26T18:19:13;2.80;89.70
4374;DHT22;2201;51.100;6.814;2023-02-26T18:21:40;2.70;90.00
4374;DHT22;2201;51.100;6.814;2023-02-26T18:24:08;2.70;90.10
4374;DHT22;2201;51.100;6.814;2023-02-26T18:26:36;2.70;90.30
4374;DHT22;2201;51.100;6.814;2023-02-26T18:29:03;2.70;90.40
4374;DHT22;2201;51.100;6.814;2023-02-26T18:31:30;2.60;90.50
4374;DHT22;2201;51.100;6.814;2023-02-26T18:34:00;2.60;90.80
4374;DHT22;2201;51.100;6.814;2023-02-26T18:36:29;2.60;90.60
4374;DHT22;2201;51.100;6.814;2023-02-26T18:39:03;2.60;90.60
4374;DHT22;2201;51.100;6.814;2023-02-26T18:41:30;2.50;91.10
4374;DHT22;2201;51.100;6.814;2023-02-26T18:43:58;2.50;91.30
4374;DHT22;2201;51.100;6.814;2023-02-26T18:46:26;2.50;91.40
4374;DHT22;2201;51.100;6.814;2023-02-26T18:48:54;2.40;91.40
4374;DHT22;2201;51.100;6.814;2023-02-26T18:51:22;2.40;91.70
4374;DHT22;2201;51.100;6.814;2023-02-26T18:53:50;2.40;91.70
4374;DHT22;2201;51.100;6.814;2023-02-26T18:56:17;2.40;92.50
4374;DHT22;2201;51.100;6.814;2023-02-26T18:58:44;2.30;92.50
4374;DHT22;2201;51.100;6.814;2023-02-26T19:01:11;2.30;92.80
4374;DHT22;2201;51.100;6.814;2023-02-26T19:03:38;2.30;93.20
4374;DHT22;2201;51.100;6.814;2023-02-26T19:06:05;2.20;93.50
4374;DHT22;2201;51.100;6.814;2023-02-26T19:08:35;2.20;93.10
4374;DHT22;2201;51.100;6.814;2023-02-26T19:11:03;2.20;93.40
4374;DHT22;2201;51.100;6.814;2023-02-26T19:13:30;2.20;93.60
4374;DHT22;2201;51.100;6.814;2023-02-26T19:15:57;2.20;93.50
4374;DHT22;2201;51.100;6.814;2023-02-26T19:18:23;2.20;93.50
4374;DHT22;2201;51.100;6.814;2023-02-26T19:20:50;2.20;93.70
4374;DHT22;2201;51.100;6.814;2023-02-26T19:23:19;2.10;94.00
4374;DHT22;2201;51.100;6.814;2023-02-26T19:25:50;2.10;94.20
4374;DHT22;2201;51.100;6.814;2023-02-26T19:28:17;2.10;94.20
4374;DHT22;2201;51.100;6.814;2023-02-26T19:30:44;2.10;94.30
4374;DHT22;2201;51.100;6.814;2023-02-26T19:33:11;2.10;94.30
4374;DHT22;2201;51.100;6.814;2023-02-26T19:35:38;2.10;94.20
4374;DHT22;2201;51.100;6.814;2023-02-26T19:38:05;2.10;94.30
4374;DHT22;2201;51.100;6.814;2023-02-26T19:40:32;2.10;94.40
4374;DHT22;2201;51.100;6.814;2023-02-26T19:43:00;2.10;94.60
4374;DHT22;2201;51.100;6.814;2023-02-26T19:45:27;2.00;94.20
4374;DHT22;2201;51.100;6.814;2023-02-26T19:47:54;2.00;94.40
4374;DHT22;2201;51.100;6.814;2023-02-26T19:50:21;2.00;94.60
4374;DHT22;2201;51.100;6.814;2023-02-26T19:52:50;2.10;95.00
4374;DHT22;2201;51.100;6.814;2023-02-26T19:55:17;2.10;95.20
4374;DHT22;2201;51.100;6.814;2023-02-26T19:57:44;2.10;95.20
4374;DHT22;2201;51.100;6.814;2023-02-26T20:00:13;2.10;94.90
4374;DHT22;2201;51.100;6.814;2023-02-26T20:02:40;2.20;94.80
4374;DHT22;2201;51.100;6.814;2023-02-26T20:05:08;2.20;94.60
4374;DHT22;2201;51.100;6.814;2023-02-26T20:07:40;2.20;94.30
4374;DHT22;2201;51.100;6.814;2023-02-26T20:10:08;2.30;94.30
4374;DHT22;2201;51.100;6.814;2023-02-26T20:12:36;2.30;94.60
4374;DHT22;2201;51.100;6.814;2023-02-26T20:15:03;2.30;94.20
4374;DHT22;2201;51.100;6.814;2023-02-26T20:17:32;2.40;94.10
4374;DHT22;2201;51.100;6.814;2023-02-26T20:19:59;2.40;94.10
4374;DHT22;2201;51.100;6.814;2023-02-26T20:22:26;2.40;93.90
4374;DHT22;2201;51.100;6.814;2023-02-26T20:24:56;2.50;93.60
4374;DHT22;2201;51.100;6.814;2023-02-26T20:27:26;2.50;93.60
4374;DHT22;2201;51.100;6.814;2023-02-26T20:29:53;2.50;93.70
4374;DHT22;2201;51.100;6.814;2023-02-26T20:32:20;2.50;93.90
4374;DHT22;2201;51.100;6.814;2023-02-26T20:34:49;2.60;93.40
4374;DHT22;2201;51.100;6.814;2023-02-26T20:37:17;2.60;93.70
4374;DHT22;2201;51.100;6.814;2023-02-26T20:39:44;2.60;93.80
4374;DHT22;2201;51.100;6.814;2023-02-26T20:42:11;2.60;93.80
4374;DHT22;2201;51.100;6.814;2023-02-26T20:44:38;2.60;94.00
4374;DHT22;2201;51.100;6.814;2023-02-26T20:47:05;2.60;94.00
4374;DHT22;2201;51.100;6.814;2023-02-26T20:49:32;2.70;94.20
4374;DHT22;2201;51.100;6.814;2023-02-26T20:52:00;2.70;94.20
4374;DHT22;2201;51.100;6.814;2023-02-26T20:54:27;2.70;93.80
4374;DHT22;2201;51.100;6.814;2023-02-26T20:56:54;2.70;93.90
4374;DHT22;2201;51.100;6.814;2023-02-26T20:59:21;2.70;94.10
4374;DHT22;2201;51.100;6.814;2023-02-26T21:01:49;2.80;94.20
4374;DHT22;2201;51.100;6.814;2023-02-26T21:04:18;2.80;94.20
4374;DHT22;2201;51.100;6.814;2023-02-26T21:06:45;2.80;94.10
4374;DHT22;2201;51.100;6.814;2023-02-26T21:09:14;2.70;94.60
4374;DHT22;2201;51.100;6.814;2023-02-26T21:11:41;2.70;95.00
4374;DHT22;2201;51.100;6.814;2023-02-26T21:14:08;2.70;95.60
4374;DHT22;2201;51.100;6.814;2023-02-26T21:16:36;2.60;95.70
4374;DHT22;2201;51.100;6.814;2023-02-26T21:19:04;2.60;95.70
4374;DHT22;2201;51.100;6.814;2023-02-26T21:21:31;2.50;95.80
4374;DHT22;2201;51.100;6.814;2023-02-26T21:23:58;2.40;96.20
4374;DHT22;2201;51.100;6.814;2023-02-26T21:26:26;2.30;95.80
4374;DHT22;2201;51.100;6.814;2023-02-26T21:28:53;2.30;96.00
4374;DHT22;2201;51.100;6.814;2023-02-26T21:31:20;2.20;96.20
4374;DHT22;2201;51.100;6.814;2023-02-26T21:33:47;2.20;96.30
4374;DHT22;2201;51.100;6.814;2023-02-26T21:36:36;2.10;96.60
4374;DHT22;2201;51.100;6.814;2023-02-26T21:39:08;2.00;97.10
4374;DHT22;2201;51.100;6.814;2023-02-26T21:41:36;1.90;97.30
4374;DHT22;2201;51.100;6.814;2023-02-26T21:44:03;1.90;97.50
4374;DHT22;2201;51.100;6.814;2023-02-26T21:46:30;1.80;98.10
4374;DHT22;2201;51.100;6.814;2023-02-26T21:48:58;1.70;98.10
4374;DHT22;2201;51.100;6.814;2023-02-26T21:51:25;1.70;98.20
4374;DHT22;2201;51.100;6.814;2023-02-26T21:53:52;1.60;98.20
4374;DHT22;2201;51.100;6.814;2023-02-26T21:56:19;1.60;98.20
4374;DHT22;2201;51.100;6.814;2023-02-26T21:58:49;1.50;98.20
4374;DHT22;2201;51.100;6.814;2023-02-26T22:01:18;1.40;98.20
4374;DHT22;2201;51.100;6.814;2023-02-26T22:03:45;1.40;98.20
4374;DHT22;2201;51.100;6.814;2023-02-26T22:06:12;1.30;98.20
4374;DHT22;2201;51.100;6.814;2023-02-26T22:08:39;1.30;98.20
4374;DHT22;2201;51.100;6.814;2023-02-26T22:11:06;1.20;98.20
4374;DHT22;2201;51.100;6.814;2023-02-26T22:13:33;1.20;98.20
4374;DHT22;2201;51.100;6.814;2023-02-26T22:16:01;1.10;98.20
4374;DHT22;2201;51.100;6.814;2023-02-26T22:18:28;1.10;98.20
4374;DHT22;2201;51.100;6.814;2023-02-26T22:20:55;1.10;98.20
4374;DHT22;2201;51.100;6.814;2023-02-26T22:23:22;1.10;98.20
4374;DHT22;2201;51.100;6.814;2023-02-26T22:25:49;1.10;98.20
4374;DHT22;2201;51.100;6.814;2023-02-26T22:28:16;1.10;98.20
4374;DHT22;2201;51.100;6.814;2023-02-26T22:30:43;1.10;98.20
4374;DHT22;2201;51.100;6.814;2023-02-26T22:33:11;1.10;98.20
4374;DHT22;2201;51.100;6.814;2023-02-26T22:35:38;1.10;98.20
4374;DHT22;2201;51.100;6.814;2023-02-26T22:38:05;1.10;98.20
4374;DHT22;2201;51.100;6.814;2023-02-26T22:40:32;1.00;98.20
4374;DHT22;2201;51.100;6.814;2023-02-26T22:42:59;1.00;98.20
4374;DHT22;2201;51.100;6.814;2023-02-26T22:45:26;1.00;98.20
4374;DHT22;2201;51.100;6.814;2023-02-26T22:47:53;1.00;98.20
4374;DHT22;2201;51.100;6.814;2023-02-26T22:50:22;1.00;98.20
4374;DHT22;2201;51.100;6.814;2023-02-26T22:52:49;1.00;98.20
4374;DHT22;2201;51.100;6.814;2023-02-26T22:55:16;1.00;98.20
4374;DHT22;2201;51.100;6.814;2023-02-26T22:57:43;0.90;98.20
4374;DHT22;2201;51.100;6.814;2023-02-26T23:00:13;0.90;98.20
4374;DHT22;2201;51.100;6.814;2023-02-26T23:02:43;0.90;98.20
4374;DHT22;2201;51.100;6.814;2023-02-26T23:05:10;0.80;98.20
4374;DHT22;2201;51.100;6.814;2023-02-26T23:07:39;0.80;98.20
4374;DHT22;2201;51.100;6.814;2023-02-26T23:10:08;0.70;98.20
4374;DHT22;2201;51.100;6.814;2023-02-26T23:12:41;0.70;98.20
4374;DHT22;2201;51.100;6.814;2023-02-26T23:15:09;0.70;98.20
4374;DHT22;2201;51.100;6.814;2023-02-26T23:17:37;0.60;98.20
4374;DHT22;2201;51.100;6.814;2023-02-26T23:20:05;0.60;98.20
4374;DHT22;2201;51.100;6.814;2023-02-26T23:22:34;0.50;98.20
4374;DHT22;2201;51.100;6.814;2023-02-26T23:25:03;0.50;98.20
4374;DHT22;2201;51.100;6.814;2023-02-26T23:27:30;0.50;98.20
4374;DHT22;2201;51.100;6.814;2023-02-26T23:29:57;0.40;98.20
4374;DHT22;2201;51.100;6.814;2023-02-26T23:32:24;0.50;98.20
4374;DHT22;2201;51.100;6.814;2023-02-26T23:34:51;0.40;98.20
4374;DHT22;2201;51.100;6.814;2023-02-26T23:37:18;0.50;98.20
4374;DHT22;2201;51.100;6.814;2023-02-26T23:39:45;0.50;98.20
4374;DHT22;2201;51.100;6.814;2023-02-26T23:42:15;0.50;98.20